createdAt,value
2018-12-16T00:00:32.656Z,95.90
2018-12-16T00:01:51.244Z,96.10
2018-12-16T00:03:15.586Z,96.30
2018-12-16T00:04:34.411Z,96.30
2018-12-16T00:05:59.576Z,96.40
2018-12-16T00:07:13.498Z,96.40
2018-12-16T00:08:29.282Z,96.40
2018-12-16T00:09:45.990Z,96.40
2018-12-16T00:11:00.121Z,96.50
2018-12-16T00:12:14.971Z,96.70
2018-12-16T00:13:35.824Z,96.70
2018-12-16T00:14:48.401Z,96.80
2018-12-16T00:16:01.512Z,96.80
2018-12-16T00:17:14.909Z,96.80
2018-12-16T00:18:30.300Z,96.80
2018-12-16T00:19:45.994Z,96.80
2018-12-16T00:21:02.321Z,96.70
2018-12-16T00:22:16.279Z,97.10
2018-12-16T00:23:31.448Z,97.00
2018-12-16T00:24:46.955Z,97.20
2018-12-16T00:26:00.832Z,97.10
2018-12-16T00:27:15.789Z,97.10
2018-12-16T00:28:31.779Z,97.20
2018-12-16T00:29:50.207Z,97.40
2018-12-16T00:31:09.574Z,97.30
2018-12-16T00:32:23.589Z,97.30
2018-12-16T00:33:39.110Z,97.30
2018-12-16T00:34:50.755Z,97.40
2018-12-16T00:36:07.083Z,97.50
2018-12-16T00:37:22.352Z,97.90
2018-12-16T00:38:38.973Z,97.40
2018-12-16T00:39:54.756Z,97.30
2018-12-16T00:41:10.325Z,97.40
2018-12-16T00:42:24.298Z,97.60
2018-12-16T00:43:39.785Z,97.50
2018-12-16T00:44:59.927Z,97.40
2018-12-16T00:47:42.954Z,97.50
2018-12-16T00:48:57.605Z,97.40
2018-12-16T00:50:12.645Z,97.50
2018-12-16T00:51:25.389Z,97.60
2018-12-16T00:52:40.061Z,97.80
2018-12-16T00:55:17.408Z,97.50
2018-12-16T00:56:30.305Z,97.80
2018-12-16T00:57:43.362Z,98.10
2018-12-16T00:59:05.343Z,98.00
2018-12-16T01:00:20.556Z,98.10
2018-12-16T01:01:33.470Z,98.10
2018-12-16T01:02:46.250Z,97.90
2018-12-16T01:03:59.462Z,97.90
2018-12-16T01:05:12.709Z,98.00
2018-12-16T01:06:25.998Z,97.60
2018-12-16T01:07:39.154Z,97.90
2018-12-16T01:08:52.277Z,98.20
2018-12-16T01:10:06.556Z,98.00
2018-12-16T01:11:19.915Z,97.70
2018-12-16T01:12:33.576Z,97.60
2018-12-16T01:13:46.592Z,97.90
2018-12-16T01:14:59.180Z,97.90
2018-12-16T01:16:22.827Z,98.00
2018-12-16T01:17:40.109Z,98.00
2018-12-16T01:18:57.355Z,98.20
2018-12-16T01:20:13.851Z,98.40
2018-12-16T01:21:28.643Z,98.40
2018-12-16T01:22:43.548Z,98.40
2018-12-16T01:23:56.469Z,98.40
2018-12-16T01:25:15.414Z,98.50
2018-12-16T01:26:28.335Z,98.20
2018-12-16T01:27:40.920Z,98.40
2018-12-16T01:28:53.797Z,98.40
2018-12-16T01:30:09.858Z,98.30
2018-12-16T01:31:24.212Z,98.40
2018-12-16T01:32:37.055Z,98.20
2018-12-16T01:33:50.348Z,98.50
2018-12-16T01:35:08.180Z,98.20
2018-12-16T01:36:20.863Z,98.20
2018-12-16T01:37:33.829Z,98.20
2018-12-16T01:38:46.868Z,98.20
2018-12-16T01:40:00.281Z,98.30
2018-12-16T01:41:13.257Z,98.50
2018-12-16T01:42:42.116Z,98.40
2018-12-16T01:43:55.790Z,98.40
2018-12-16T01:45:08.570Z,98.30
2018-12-16T01:46:21.310Z,98.60
2018-12-16T01:47:33.985Z,98.70
2018-12-16T01:48:48.884Z,98.60
2018-12-16T01:50:01.529Z,98.80
2018-12-16T01:51:15.341Z,98.90
2018-12-16T01:52:28.165Z,98.90
2018-12-16T01:53:40.848Z,98.90
2018-12-16T01:55:00.828Z,98.80
2018-12-16T01:56:13.701Z,98.80
2018-12-16T01:57:26.643Z,98.80
2018-12-16T01:58:39.483Z,98.90
2018-12-16T01:59:52.512Z,98.80
2018-12-16T02:01:07.149Z,98.90
2018-12-16T02:02:22.001Z,98.80
2018-12-16T02:03:36.420Z,98.70
2018-12-16T02:04:53.474Z,98.70
2018-12-16T02:06:07.553Z,98.60
2018-12-16T02:07:22.724Z,98.80
2018-12-16T02:08:36.618Z,98.80
2018-12-16T02:09:50.742Z,98.70
2018-12-16T02:11:05.930Z,98.60
2018-12-16T02:12:21.599Z,98.60
2018-12-16T02:13:35.876Z,98.90
2018-12-16T02:14:48.492Z,98.70
2018-12-16T02:16:02.716Z,98.80
2018-12-16T02:17:15.853Z,98.70
2018-12-16T02:18:29.721Z,98.60
2018-12-16T02:19:42.271Z,98.60
2018-12-16T02:20:57.229Z,98.60
2018-12-16T02:22:09.980Z,98.70
2018-12-16T02:23:27.231Z,98.60
2018-12-16T02:24:39.872Z,98.60
2018-12-16T02:25:53.032Z,98.70
2018-12-16T02:27:06.456Z,98.90
2018-12-16T02:28:19.380Z,98.90
2018-12-16T02:29:28.145Z,99.00
2018-12-16T02:30:40.917Z,98.90
2018-12-16T02:31:53.950Z,98.80
2018-12-16T02:33:06.529Z,98.70
2018-12-16T02:34:21.343Z,98.60
2018-12-16T02:35:34.168Z,98.80
2018-12-16T02:36:51.032Z,98.80
2018-12-16T02:38:03.889Z,98.60
2018-12-16T02:39:19.151Z,98.50
2018-12-16T02:40:32.355Z,98.60
2018-12-16T02:41:45.325Z,99.20
2018-12-16T02:42:58.148Z,98.90
2018-12-16T02:44:11.666Z,99.00
2018-12-16T02:45:26.453Z,99.00
2018-12-16T02:46:39.356Z,98.90
2018-12-16T02:47:54.703Z,99.10
2018-12-16T02:49:07.372Z,99.10
2018-12-16T02:50:21.774Z,99.10
2018-12-16T02:51:35.608Z,99.00
2018-12-16T02:52:50.303Z,98.90
2018-12-16T02:54:07.477Z,99.10
2018-12-16T02:55:20.556Z,99.00
2018-12-16T02:56:33.875Z,99.00
2018-12-16T02:57:50.257Z,99.00
2018-12-16T02:59:04.771Z,99.10
2018-12-16T03:00:20.400Z,98.90
2018-12-16T03:01:33.350Z,99.00
2018-12-16T03:02:46.704Z,99.50
2018-12-16T03:03:59.793Z,99.30
2018-12-16T03:05:14.418Z,99.10
2018-12-16T03:06:27.904Z,99.30
2018-12-16T03:07:43.089Z,99.20
2018-12-16T03:08:57.149Z,99.10
2018-12-16T03:10:11.639Z,98.90
2018-12-16T03:11:27.159Z,99.10
2018-12-16T03:12:41.611Z,99.10
2018-12-16T03:13:54.973Z,99.50
2018-12-16T03:15:08.376Z,98.90
2018-12-16T03:16:20.954Z,99.20
2018-12-16T03:17:46.919Z,98.90
2018-12-16T03:18:59.819Z,98.70
2018-12-16T03:20:12.686Z,98.90
2018-12-16T03:21:25.437Z,98.50
2018-12-16T03:22:38.261Z,98.80
2018-12-16T03:23:50.947Z,98.80
2018-12-16T03:25:06.668Z,98.80
2018-12-16T03:26:21.283Z,98.50
2018-12-16T03:27:32.223Z,98.20
2018-12-16T03:28:45.529Z,98.40
2018-12-16T03:30:01.014Z,98.40
2018-12-16T03:31:14.517Z,98.70
2018-12-16T03:32:29.302Z,98.30
2018-12-16T03:33:42.664Z,98.40
2018-12-16T03:34:55.161Z,98.40
2018-12-16T03:36:07.998Z,98.60
2018-12-16T03:37:20.796Z,98.60
2018-12-16T03:38:35.331Z,98.60
2018-12-16T03:39:48.712Z,98.70
2018-12-16T03:41:04.249Z,98.50
2018-12-16T03:42:17.316Z,98.40
2018-12-16T03:43:30.466Z,98.40
2018-12-16T03:44:46.482Z,98.10
2018-12-16T03:49:31.785Z,98.60
2018-12-16T03:50:45.037Z,98.60
2018-12-16T03:51:58.227Z,98.50
2018-12-16T03:53:19.992Z,98.80
2018-12-16T03:54:34.235Z,98.50
2018-12-16T03:55:48.041Z,98.50
2018-12-16T03:57:01.269Z,98.50
2018-12-16T03:58:14.598Z,98.70
2018-12-16T03:59:27.455Z,98.60
2018-12-16T04:00:46.895Z,98.60
2018-12-16T04:01:59.401Z,98.40
2018-12-16T04:03:12.133Z,98.60
2018-12-16T04:04:26.451Z,98.50
2018-12-16T04:05:39.700Z,98.40
2018-12-16T04:06:53.002Z,98.50
2018-12-16T04:08:06.332Z,98.60
2018-12-16T04:09:19.636Z,98.40
2018-12-16T04:10:32.855Z,98.40
2018-12-16T04:11:45.835Z,98.70
2018-12-16T04:12:58.591Z,98.60
2018-12-16T04:14:12.393Z,98.40
2018-12-16T04:15:27.748Z,98.70
2018-12-16T04:16:40.984Z,98.50
2018-12-16T04:17:53.882Z,98.60
2018-12-16T04:19:06.872Z,98.60
2018-12-16T04:20:19.730Z,98.50
2018-12-16T04:21:32.498Z,98.40
2018-12-16T04:22:45.344Z,98.30
2018-12-16T04:23:59.404Z,98.40
2018-12-16T04:25:12.373Z,98.50
2018-12-16T04:26:25.334Z,98.60
2018-12-16T04:27:39.644Z,98.60
2018-12-16T04:28:52.370Z,98.50
2018-12-16T04:30:07.281Z,98.60
2018-12-16T04:31:20.065Z,98.50
2018-12-16T04:32:33.267Z,98.40
2018-12-16T04:33:48.089Z,98.20
2018-12-16T04:35:01.721Z,98.40
2018-12-16T04:36:15.760Z,98.60
2018-12-16T04:37:29.478Z,98.50
2018-12-16T04:38:43.499Z,98.20
2018-12-16T04:39:56.581Z,98.60
2018-12-16T04:41:10.543Z,98.60
2018-12-16T04:42:24.163Z,98.70
2018-12-16T04:43:38.149Z,98.90
2018-12-16T04:44:51.805Z,98.60
2018-12-16T04:46:07.588Z,98.50
2018-12-16T04:47:21.378Z,98.60
2018-12-16T04:48:34.802Z,98.20
2018-12-16T04:49:49.766Z,98.30
2018-12-16T05:00:10.389Z,98.30
2018-12-16T05:01:23.036Z,98.30
2018-12-16T05:02:39.516Z,98.40
2018-12-16T05:03:52.588Z,98.40
2018-12-16T05:05:05.619Z,98.40
2018-12-16T05:06:19.583Z,98.10
2018-12-16T05:07:28.963Z,98.40
2018-12-16T05:08:44.143Z,98.50
2018-12-16T05:10:03.025Z,98.40
2018-12-16T05:11:15.720Z,98.30
2018-12-16T05:12:28.892Z,98.20
2018-12-16T05:13:37.297Z,98.30
2018-12-16T05:14:52.129Z,98.60
2018-12-16T05:16:06.136Z,98.50
2018-12-16T05:17:18.984Z,98.60
2018-12-16T05:18:31.737Z,98.60
2018-12-16T05:20:17.512Z,98.40
2018-12-16T05:21:30.305Z,98.40
2018-12-16T05:22:44.157Z,98.60
2018-12-16T05:23:56.998Z,98.50
2018-12-16T05:25:12.016Z,98.10
2018-12-16T05:26:25.289Z,98.30
2018-12-16T05:27:38.852Z,98.30
2018-12-16T05:28:51.659Z,98.30
2018-12-16T05:30:06.029Z,98.00
2018-12-16T05:31:19.310Z,98.10
2018-12-16T05:32:32.838Z,98.10
2018-12-16T05:33:46.028Z,97.90
2018-12-16T05:34:58.921Z,98.10
2018-12-16T05:36:11.462Z,98.10
2018-12-16T05:37:24.191Z,98.30
2018-12-16T05:38:37.344Z,98.60
2018-12-16T05:39:50.725Z,98.40
2018-12-16T05:41:03.545Z,98.40
2018-12-16T05:42:16.649Z,98.10
2018-12-16T05:43:30.518Z,97.80
2018-12-16T05:44:43.148Z,97.90
2018-12-16T05:46:29.032Z,98.00
2018-12-16T05:47:41.908Z,97.80
2018-12-16T05:48:55.243Z,98.00
2018-12-16T05:50:08.376Z,98.10
2018-12-16T05:51:20.861Z,98.20
2018-12-16T05:52:34.700Z,97.90
2018-12-16T05:53:48.804Z,98.00
2018-12-16T05:55:01.453Z,97.90
2018-12-16T05:56:10.417Z,98.10
2018-12-16T05:57:22.845Z,98.10
2018-12-16T05:58:35.710Z,98.20
2018-12-16T06:02:34.625Z,98.00
2018-12-16T06:03:48.342Z,98.20
2018-12-16T06:05:01.478Z,97.80
2018-12-16T06:06:14.002Z,97.80
2018-12-16T06:07:27.913Z,98.20
2018-12-16T06:08:40.801Z,97.70
2018-12-16T06:09:53.880Z,98.00
2018-12-16T06:11:06.331Z,98.00
2018-12-16T06:12:19.079Z,98.40
2018-12-16T06:17:54.057Z,98.10
2018-12-16T06:19:08.568Z,98.10
2018-12-16T06:20:21.297Z,98.00
2018-12-16T06:21:35.502Z,98.20
2018-12-16T06:22:47.973Z,98.40
2018-12-16T06:24:37.646Z,98.20
2018-12-16T06:25:50.237Z,97.80
2018-12-16T06:27:03.440Z,98.00
2018-12-16T06:28:16.132Z,97.90
2018-12-16T06:29:29.002Z,98.10
2018-12-16T06:30:42.080Z,97.80
2018-12-16T06:31:55.292Z,97.70
2018-12-16T06:33:09.027Z,97.60
2018-12-16T06:34:19.035Z,97.90
2018-12-16T06:35:32.463Z,97.90
2018-12-16T06:36:45.892Z,97.90
2018-12-16T06:37:58.515Z,98.00
2018-12-16T06:39:12.444Z,98.00
2018-12-16T06:40:25.194Z,98.00
2018-12-16T06:41:38.677Z,97.90
2018-12-16T06:42:51.850Z,97.90
2018-12-16T06:44:05.403Z,98.00
2018-12-16T06:45:18.260Z,98.10
2018-12-16T06:46:31.724Z,98.10
2018-12-16T06:47:45.285Z,98.00
2018-12-16T06:48:58.711Z,98.00
2018-12-16T06:50:11.537Z,98.00
2018-12-16T06:51:24.940Z,97.80
2018-12-16T06:52:37.245Z,98.00
2018-12-16T06:54:21.142Z,98.00
2018-12-16T06:55:33.730Z,97.90
2018-12-16T06:56:46.550Z,98.00
2018-12-16T06:57:59.796Z,98.00
2018-12-16T06:59:12.918Z,98.10
2018-12-16T07:00:33.367Z,98.00
2018-12-16T07:01:49.059Z,97.90
2018-12-16T07:03:03.702Z,97.70
2018-12-16T07:04:17.553Z,97.90
2018-12-16T07:05:32.901Z,97.90
2018-12-16T07:06:46.786Z,97.90
2018-12-16T07:07:59.569Z,97.70
2018-12-16T07:09:13.519Z,98.40
2018-12-16T07:10:27.871Z,98.00
2018-12-16T07:11:41.239Z,97.50
2018-12-16T07:12:55.538Z,98.00
2018-12-16T07:14:12.964Z,97.90
2018-12-16T07:15:27.401Z,97.70
2018-12-16T07:16:41.949Z,98.30
2018-12-16T07:17:56.996Z,97.80
2018-12-16T07:19:13.211Z,97.80
2018-12-16T07:20:28.722Z,97.50
2018-12-16T07:21:43.135Z,97.50
2018-12-16T07:22:58.182Z,97.20
2018-12-16T07:24:11.823Z,97.10
2018-12-16T07:25:23.247Z,97.40
2018-12-16T07:26:38.774Z,97.50
2018-12-16T07:27:52.652Z,97.50
2018-12-16T07:29:06.966Z,97.40
2018-12-16T07:30:21.215Z,97.40
2018-12-16T07:31:35.078Z,97.40
2018-12-16T07:32:50.473Z,96.80
2018-12-16T07:34:03.404Z,97.10
2018-12-16T07:35:17.732Z,97.40
2018-12-16T07:36:31.486Z,97.40
2018-12-16T07:37:45.586Z,97.30
2018-12-16T07:38:58.864Z,97.00
2018-12-16T07:40:14.381Z,97.20
2018-12-16T07:41:28.770Z,97.20
2018-12-16T07:42:38.870Z,97.60
2018-12-16T07:43:55.179Z,96.90
2018-12-16T07:45:10.238Z,97.00
2018-12-16T07:46:25.522Z,97.00
2018-12-16T07:47:40.730Z,97.20
2018-12-16T07:48:59.145Z,97.10
2018-12-16T07:50:12.567Z,96.90
2018-12-16T07:51:26.220Z,97.00
2018-12-16T07:52:39.408Z,96.60
2018-12-16T08:17:06.747Z,96.00
2018-12-16T08:18:20.455Z,96.10
2018-12-16T08:19:36.785Z,95.80
2018-12-16T08:20:51.605Z,95.90
2018-12-16T08:22:00.606Z,96.20
2018-12-16T08:23:13.456Z,96.20
2018-12-16T08:24:26.389Z,96.30
2018-12-16T08:25:39.713Z,95.50
2018-12-16T08:26:52.746Z,95.50
2018-12-16T08:28:09.966Z,95.80
2018-12-16T08:29:22.756Z,95.90
2018-12-16T08:30:36.457Z,95.20
2018-12-16T08:31:49.245Z,95.40
2018-12-16T08:33:24.163Z,95.50
2018-12-16T08:34:37.049Z,95.60
2018-12-16T08:35:50.105Z,95.70
2018-12-16T08:37:04.741Z,95.80
2018-12-16T08:38:18.181Z,95.70
2018-12-16T08:39:31.873Z,96.00
2018-12-16T08:40:46.094Z,95.90
2018-12-16T08:41:59.032Z,96.10
2018-12-16T08:43:12.602Z,95.50
2018-12-16T08:44:25.759Z,95.90
2018-12-16T08:45:39.087Z,96.00
2018-12-16T08:46:52.373Z,96.00
2018-12-16T08:48:07.735Z,95.60
2018-12-16T08:49:21.182Z,95.90
2018-12-16T08:50:35.388Z,95.40
2018-12-16T08:51:49.447Z,95.90
2018-12-16T08:53:01.315Z,95.20
2018-12-16T08:54:19.469Z,95.20
2018-12-16T08:55:33.029Z,95.60
2018-12-16T08:56:46.588Z,95.60
2018-12-16T08:58:21.315Z,94.70
2018-12-16T08:59:37.120Z,94.90
2018-12-16T09:00:50.406Z,95.30
2018-12-16T09:02:03.631Z,95.20
2018-12-16T09:03:16.512Z,94.90
2018-12-16T09:04:29.520Z,94.90
2018-12-16T09:05:46.985Z,95.00
2018-12-16T09:07:00.330Z,94.90
2018-12-16T09:08:14.029Z,95.20
2018-12-16T09:09:28.023Z,95.50
2018-12-16T09:10:45.797Z,95.30
2018-12-16T09:12:02.033Z,95.60
2018-12-16T09:13:15.579Z,95.80
2018-12-16T09:14:30.772Z,95.40
2018-12-16T09:15:44.903Z,95.60
2018-12-16T09:17:00.110Z,94.80
2018-12-16T09:18:14.651Z,94.50
2018-12-16T09:19:31.108Z,94.70
2018-12-16T09:20:47.085Z,95.00
2018-12-16T09:22:02.030Z,95.40
2018-12-16T09:23:17.074Z,95.80
2018-12-16T09:24:36.992Z,95.20
2018-12-16T09:25:50.429Z,94.60
2018-12-16T09:27:12.372Z,95.20
2018-12-16T09:28:26.252Z,95.00
2018-12-16T09:29:40.489Z,94.70
2018-12-16T09:30:58.173Z,94.60
2018-12-16T09:32:11.541Z,95.20
2018-12-16T09:33:24.437Z,94.80
2018-12-16T09:34:38.820Z,94.30
2018-12-16T09:35:55.301Z,94.80
2018-12-16T09:37:10.318Z,95.20
2018-12-16T09:38:23.494Z,95.10
2018-12-16T09:39:38.378Z,95.40
2018-12-16T09:40:52.959Z,95.40
2018-12-16T09:42:07.173Z,95.10
2018-12-16T09:43:21.486Z,94.70
2018-12-16T09:44:35.195Z,94.80
2018-12-16T09:45:49.546Z,94.70
2018-12-16T09:47:03.204Z,94.80
2018-12-16T09:48:18.497Z,95.00
2018-12-16T09:49:33.884Z,95.30
2018-12-16T09:50:43.787Z,94.50
2018-12-16T09:51:56.967Z,94.70
2018-12-16T09:53:10.410Z,95.00
2018-12-16T09:54:23.240Z,95.20
2018-12-16T09:55:36.322Z,95.50
2018-12-16T09:56:49.000Z,95.00
2018-12-16T09:58:01.539Z,94.80
2018-12-16T09:59:14.633Z,95.30
2018-12-16T10:00:27.184Z,95.10
2018-12-16T10:01:39.989Z,95.20
2018-12-16T10:02:52.791Z,95.40
2018-12-16T10:04:02.757Z,95.40
2018-12-16T10:05:15.496Z,95.00
2018-12-16T10:06:24.024Z,95.00
2018-12-16T10:07:36.629Z,95.20
2018-12-16T10:08:49.485Z,95.50
2018-12-16T10:10:02.385Z,95.60
2018-12-16T10:11:15.364Z,95.40
2018-12-16T10:12:37.386Z,95.50
2018-12-16T10:13:55.161Z,95.30
2018-12-16T10:15:11.165Z,95.50
2018-12-16T10:16:26.268Z,95.20
2018-12-16T10:17:40.908Z,95.30
2018-12-16T10:18:53.984Z,95.30
2018-12-16T10:20:08.109Z,95.40
2018-12-16T10:21:20.942Z,95.90
2018-12-16T10:22:33.629Z,95.40
2018-12-16T10:23:49.657Z,95.80
2018-12-16T10:25:02.924Z,95.70
2018-12-16T10:26:20.584Z,95.70
2018-12-16T10:27:33.841Z,96.10
2018-12-16T10:28:49.329Z,96.60
2018-12-16T10:30:02.713Z,96.10
2018-12-16T10:31:15.888Z,95.80
2018-12-16T10:32:29.396Z,95.80
2018-12-16T10:33:43.741Z,96.00
2018-12-16T10:34:56.053Z,96.30
2018-12-16T10:36:10.898Z,96.40
2018-12-16T10:37:34.092Z,96.30
2018-12-16T10:38:43.823Z,96.00
2018-12-16T10:39:57.661Z,95.90
2018-12-16T10:41:11.430Z,95.90
2018-12-16T10:42:21.170Z,96.10
2018-12-16T10:43:36.259Z,96.10
2018-12-16T10:44:49.801Z,96.20
2018-12-16T10:46:03.850Z,96.10
2018-12-16T10:47:16.971Z,96.20
2018-12-16T10:48:30.816Z,96.00
2018-12-16T10:49:47.639Z,96.20
2018-12-16T10:51:04.679Z,96.40
2018-12-16T10:52:18.748Z,96.40
2018-12-16T10:53:33.047Z,96.30
2018-12-16T10:54:46.039Z,96.30
2018-12-16T10:56:01.320Z,96.30
2018-12-16T10:57:16.723Z,96.70
2018-12-16T10:58:31.176Z,96.40
2018-12-16T10:59:45.147Z,96.20
2018-12-16T11:01:03.260Z,96.10
2018-12-16T11:02:12.218Z,96.30
2018-12-16T11:03:28.563Z,96.20
2018-12-16T11:04:42.358Z,96.00
2018-12-16T11:05:56.334Z,96.00
2018-12-16T11:07:09.729Z,96.00
2018-12-16T11:08:24.805Z,96.00
2018-12-16T11:09:38.966Z,96.10
2018-12-16T11:10:52.658Z,96.30
2018-12-16T11:12:07.144Z,96.30
2018-12-16T11:13:18.191Z,96.10
2018-12-16T11:14:34.070Z,96.00
2018-12-16T11:15:53.871Z,96.30
2018-12-16T11:17:08.297Z,96.00
2018-12-16T11:18:23.620Z,96.00
2018-12-16T11:19:41.232Z,96.00
2018-12-16T11:20:57.392Z,95.90
2018-12-16T11:22:19.134Z,96.00
2018-12-16T11:23:32.412Z,96.10
2018-12-16T11:24:45.426Z,96.40
2018-12-16T11:25:59.103Z,96.10
2018-12-16T11:27:11.745Z,96.10
2018-12-16T11:28:25.035Z,95.90
2018-12-16T11:29:42.672Z,96.00
2018-12-16T11:30:56.070Z,95.70
2018-12-16T11:32:14.383Z,95.70
2018-12-16T11:33:29.146Z,95.70
2018-12-16T11:34:42.499Z,95.80
2018-12-16T11:35:55.308Z,95.50
2018-12-16T11:37:10.616Z,95.60
2018-12-16T11:38:23.786Z,95.80
2018-12-16T11:39:36.504Z,96.00
2018-12-16T11:40:49.447Z,95.90
2018-12-16T11:42:04.753Z,95.90
2018-12-16T11:43:23.203Z,95.70
2018-12-16T11:44:36.206Z,95.90
2018-12-16T11:45:49.701Z,96.00
2018-12-16T11:47:12.018Z,95.70
2018-12-16T11:48:28.023Z,95.70
2018-12-16T11:49:40.953Z,96.00
2018-12-16T11:50:53.604Z,95.90
2018-12-16T11:52:06.845Z,95.80
2018-12-16T11:53:21.129Z,95.90
2018-12-16T11:54:36.111Z,96.00
2018-12-16T11:55:48.975Z,95.90
2018-12-16T11:57:05.643Z,96.10
2018-12-16T11:58:24.105Z,95.60
2018-12-16T11:59:39.945Z,95.60
2018-12-16T12:00:53.780Z,95.60
2018-12-16T12:02:07.436Z,95.90
2018-12-16T12:03:22.385Z,95.50
2018-12-16T12:04:37.625Z,95.90
2018-12-16T12:05:52.646Z,95.60
2018-12-16T12:07:05.695Z,95.40
2018-12-16T12:08:18.381Z,95.50
2018-12-16T12:09:31.764Z,95.10
2018-12-16T12:10:44.985Z,95.40
2018-12-16T12:11:57.664Z,95.70
2018-12-16T12:13:06.453Z,95.90
2018-12-16T12:14:19.425Z,95.70
2018-12-16T12:15:32.250Z,95.70
2018-12-16T12:16:44.981Z,95.90
2018-12-16T12:17:57.916Z,95.70
2018-12-16T12:19:16.866Z,95.20
2018-12-16T12:21:35.264Z,95.60
2018-12-16T12:22:48.045Z,95.40
2018-12-16T12:24:00.894Z,95.70
2018-12-16T12:25:19.668Z,95.90
2018-12-16T12:26:28.935Z,95.40
2018-12-16T12:27:41.909Z,95.30
2018-12-16T12:28:55.557Z,95.60
2018-12-16T12:30:10.612Z,95.40
2018-12-16T12:31:24.261Z,95.70
2018-12-16T12:32:37.276Z,95.60
2018-12-16T12:33:50.859Z,95.80
2018-12-16T12:35:04.157Z,95.80
2018-12-16T12:36:17.789Z,95.90
2018-12-16T12:37:30.862Z,95.90
2018-12-16T12:38:44.007Z,95.70
2018-12-16T12:39:57.136Z,95.50
2018-12-16T12:41:10.783Z,95.40
2018-12-16T12:42:24.403Z,95.30
2018-12-16T12:43:37.155Z,95.30
2018-12-16T12:44:49.984Z,95.50
2018-12-16T12:46:03.057Z,95.60
2018-12-16T12:47:17.878Z,95.30
2018-12-16T12:48:41.378Z,95.20
2018-12-16T12:49:54.285Z,95.60
2018-12-16T12:51:07.367Z,95.40
2018-12-16T12:52:20.666Z,95.40
2018-12-16T12:53:36.009Z,95.80
2018-12-16T12:54:52.057Z,95.60
2018-12-16T12:56:06.551Z,95.50
2018-12-16T12:57:19.841Z,95.40
2018-12-16T12:58:34.560Z,95.40
2018-12-16T12:59:49.676Z,95.70
2018-12-16T13:01:03.408Z,95.40
2018-12-16T13:02:17.440Z,95.50
2018-12-16T13:03:35.837Z,95.40
2018-12-16T13:04:51.622Z,95.60
2018-12-16T13:06:07.427Z,95.60
2018-12-16T13:07:21.900Z,95.70
2018-12-16T13:08:32.505Z,95.30
2018-12-16T13:09:46.737Z,95.40
2018-12-16T13:11:02.085Z,95.60
2018-12-16T13:12:16.015Z,95.60
2018-12-16T13:13:30.476Z,95.70
2018-12-16T13:14:46.744Z,95.60
2018-12-16T13:16:00.624Z,95.50
2018-12-16T13:17:15.641Z,95.70
2018-12-16T13:18:31.169Z,95.50
2018-12-16T13:19:46.848Z,95.20
2018-12-16T13:21:01.979Z,95.20
2018-12-16T13:22:16.960Z,95.50
2018-12-16T13:23:30.838Z,95.30
2018-12-16T13:24:55.759Z,95.40
2018-12-16T13:26:11.302Z,95.70
2018-12-16T13:27:26.822Z,96.00
2018-12-16T13:28:40.069Z,95.60
2018-12-16T13:30:01.016Z,95.50
2018-12-16T13:31:17.081Z,95.60
2018-12-16T13:32:31.230Z,95.70
2018-12-16T13:33:46.061Z,96.00
2018-12-16T13:35:01.217Z,96.00
2018-12-16T13:36:15.902Z,95.60
2018-12-16T13:37:30.942Z,95.80
2018-12-16T13:38:45.121Z,95.90
2018-12-16T13:39:59.100Z,95.80
2018-12-16T13:41:17.338Z,95.80
2018-12-16T13:42:31.271Z,95.90
2018-12-16T13:43:45.950Z,95.90
2018-12-16T13:45:00.513Z,96.00
2018-12-16T13:46:14.249Z,95.90
2018-12-16T13:47:43.068Z,96.20
2018-12-16T13:48:57.898Z,96.50
2018-12-16T13:50:12.267Z,96.10
2018-12-16T13:51:26.822Z,96.00
2018-12-16T13:52:43.466Z,95.90
2018-12-16T13:53:59.300Z,96.30
2018-12-16T13:55:14.865Z,96.20
2018-12-16T13:56:29.500Z,96.10
2018-12-16T13:57:44.520Z,95.80
2018-12-16T13:59:09.930Z,95.90
2018-12-16T14:00:25.385Z,95.80
2018-12-16T14:01:38.672Z,96.00
2018-12-16T14:02:52.411Z,96.00
2018-12-16T14:04:09.330Z,96.30
2018-12-16T14:05:23.723Z,96.20
2018-12-16T14:06:39.135Z,96.30
2018-12-16T14:07:53.244Z,96.20
2018-12-16T14:09:10.370Z,95.90
2018-12-16T14:10:24.139Z,95.90
2018-12-16T14:11:42.152Z,95.90
2018-12-16T14:12:58.021Z,96.00
2018-12-16T14:14:14.508Z,95.80
2018-12-16T14:15:37.674Z,96.10
2018-12-16T14:16:54.968Z,96.10
2018-12-16T14:18:11.948Z,96.20
2018-12-16T14:19:25.729Z,96.40
2018-12-16T14:20:39.589Z,96.20
2018-12-16T14:21:54.238Z,96.50
2018-12-16T14:29:41.985Z,95.90
2018-12-16T14:30:54.793Z,96.20
2018-12-16T14:32:07.690Z,96.40
2018-12-16T14:33:20.548Z,96.40
2018-12-16T14:34:33.337Z,96.30
2018-12-16T14:35:47.785Z,96.20
2018-12-16T14:37:01.755Z,96.00
2018-12-16T14:38:15.880Z,96.10
2018-12-16T14:39:29.261Z,96.00
2018-12-16T14:40:42.278Z,96.20
2018-12-16T14:41:55.256Z,96.30
2018-12-16T14:43:08.139Z,96.10
2018-12-16T14:44:23.133Z,96.30
2018-12-16T14:45:36.327Z,96.30
2018-12-16T14:46:49.376Z,96.20
2018-12-16T14:48:03.131Z,96.00
2018-12-16T14:49:16.136Z,96.30
2018-12-16T14:50:35.838Z,96.10
2018-12-16T14:51:48.665Z,96.30
2018-12-16T14:53:01.528Z,96.20
2018-12-16T14:54:14.348Z,96.20
2018-12-16T14:55:27.198Z,96.20
2018-12-16T14:56:40.188Z,96.30
2018-12-16T14:57:53.145Z,96.20
2018-12-16T14:59:06.095Z,96.40
2018-12-16T15:00:18.876Z,96.20
2018-12-16T15:01:31.692Z,96.10
2018-12-16T15:02:44.597Z,96.30
2018-12-16T15:03:57.435Z,96.30
2018-12-16T15:05:10.828Z,96.20
2018-12-16T15:06:24.272Z,95.90
2018-12-16T15:07:37.329Z,95.90
2018-12-16T15:08:50.184Z,95.60
2018-12-16T15:10:03.286Z,95.80
2018-12-16T15:11:17.009Z,95.80
2018-12-16T15:12:30.488Z,95.50
2018-12-16T15:13:43.909Z,95.70
2018-12-16T15:14:56.656Z,95.90
2018-12-16T15:16:10.740Z,95.80
2018-12-16T15:17:25.198Z,95.70
2018-12-16T15:18:34.352Z,95.60
2018-12-16T15:19:47.313Z,95.80
2018-12-16T15:21:01.033Z,95.80
2018-12-16T15:22:13.974Z,96.00
2018-12-16T15:23:27.687Z,95.90
2018-12-16T15:24:40.632Z,95.80
2018-12-16T15:25:54.364Z,95.70
2018-12-16T15:27:07.963Z,95.60
2018-12-16T15:28:20.963Z,96.10
2018-12-16T15:29:36.612Z,95.90
2018-12-16T15:30:49.420Z,95.70
2018-12-16T15:32:02.393Z,95.70
2018-12-16T15:33:16.537Z,95.80
2018-12-16T15:34:30.480Z,95.80
2018-12-16T15:35:43.896Z,95.80
2018-12-16T15:36:57.353Z,95.70
2018-12-16T15:38:10.540Z,96.00
2018-12-16T15:39:28.375Z,95.90
2018-12-16T15:40:41.368Z,96.30
2018-12-16T15:41:55.112Z,96.20
2018-12-16T15:43:08.135Z,96.20
2018-12-16T15:44:21.285Z,95.90
2018-12-16T15:45:37.874Z,96.20
2018-12-16T15:46:50.918Z,96.10
2018-12-16T15:48:06.918Z,96.10
2018-12-16T15:49:25.081Z,95.90
2018-12-16T15:50:42.964Z,95.90
2018-12-16T15:51:59.327Z,95.90
2018-12-16T15:53:12.560Z,96.10
2018-12-16T15:54:29.240Z,96.40
2018-12-16T15:55:43.077Z,96.10
2018-12-16T15:56:56.701Z,96.20
2018-12-16T15:58:09.769Z,95.80
2018-12-16T15:59:23.585Z,96.20
2018-12-16T16:00:47.000Z,96.30
2018-12-16T16:02:05.232Z,96.40
2018-12-16T16:03:20.548Z,96.50
2018-12-16T16:04:38.669Z,96.10
2018-12-16T16:05:52.406Z,96.10
2018-12-16T16:07:06.759Z,96.20
2018-12-16T16:08:25.472Z,96.20
2018-12-16T16:09:39.817Z,96.10
2018-12-16T16:10:54.392Z,96.30
2018-12-16T16:12:35.205Z,96.10
2018-12-16T16:13:57.882Z,96.10
2018-12-16T16:15:23.032Z,96.20
2018-12-16T16:16:36.565Z,96.00
2018-12-16T16:18:00.604Z,96.10
2018-12-16T16:19:14.587Z,96.30
2018-12-16T16:20:29.982Z,96.10
2018-12-16T16:21:44.127Z,96.00
2018-12-16T16:23:08.661Z,96.00
2018-12-16T16:24:23.995Z,96.30
2018-12-16T16:25:47.474Z,96.50
2018-12-16T16:27:08.340Z,96.20
2018-12-16T16:28:21.472Z,96.40
2018-12-16T16:29:35.240Z,96.60
2018-12-16T16:30:56.153Z,96.50
2018-12-16T16:32:13.167Z,96.40
2018-12-16T16:33:26.685Z,96.60
2018-12-16T16:34:42.520Z,96.60
2018-12-16T16:35:59.392Z,96.60
2018-12-16T16:37:12.238Z,96.40
2018-12-16T16:38:29.486Z,96.10
2018-12-16T16:39:43.430Z,96.30
2018-12-16T16:40:56.342Z,96.10
2018-12-16T16:42:10.089Z,96.20
2018-12-16T16:43:23.988Z,96.20
2018-12-16T16:44:37.675Z,96.30
2018-12-16T16:45:51.615Z,96.40
2018-12-16T16:47:05.344Z,96.30
2018-12-16T16:48:19.055Z,96.50
2018-12-16T16:49:32.772Z,96.70
2018-12-16T16:50:45.843Z,96.80
2018-12-16T16:52:01.895Z,97.00
2018-12-16T16:53:15.609Z,97.10
2018-12-16T16:54:30.420Z,96.80